Aérodrome :
LOGIN :

S'inscrire | Disclaimer

   EN    FR    IT 

 










Légende :    VFR   VFR Marginal   IFR   IFR Intensif   IFR Très Intensif
Visi : 
Plafond : 
>= 8 km
>= 3000ft
5 à 8 km
1000 à 3000 ft
1500m à 5 km
500 à 1000 ft
800 à 1500m
200 à 500 ft
< 800m
< 200 ft
Symboles :   Orages  Brouillard  Fortes neiges  Fortes précipitations  Vent > 20 kt
SIGMETs :   Divers  Orages  Givrage  Turbulence  Onde Orograph.  Cendres Volcan.






- Altitude de l'aérodrome : 461 ft
- Code IATA : WIE


ETOU - Wiesbaden Army

DERNIER METAR :
  • 190456Z AUTO 00000KT 9999 FEW006 SCT075 04/04 A2996 RMK AO2 SLP153 T00420041

METARs EXPIRÉS :
  • 190406Z AUTO 00000KT 9999 SCT007 04/04 A2996 RMK AO2 SLP153 $
  • 190356Z AUTO 28003KT 9999 OVC007 04/04 A2996 RMK AO2 RAE06 SLP153 P0000 T00440041 $
  • 190306Z AUTO 22003KT 9999 BKN007 OVC018 05/04 A2996 RMK AO2 RAE06 CIG 007V018 SLP153 $
  • 190256Z AUTO 25004KT 9999 -RA FEW008 BKN015 BKN021 05/04 A2996 RMK AO2 RAB27 SLP153 P0001 60001 T00450039 52011 $
  • 190247Z AUTO 26005KT 9000 -RA FEW009 BKN014 BKN021 05/04 A2995 RMK AO2 RAB27 CIG 010V014 SLP150 $
  • 190237Z AUTO 25006KT 9999 -RA BKN010 BKN013 BKN022 05/04 A2995 RMK AO2 RAB27 SLP149 $
  • 190227Z AUTO 24004KT 9999 -RA OVC009 04/04 A2995 RMK AO2 RAB27 SLP150 $

TAF AMD TAF ETOU
Valide du 19 à 04h jusqu'au 20 à 10h UTC


190447Z 1904/2010 VRB06KT 9999 SCT006 620305 QNH2994INS
TEMPO 1904/1906 BKN010
BECMG 1906/1907 VRB06KT 6000 BR BKN015 QNH2998INS
BECMG 1910/1911 VRB06KT 9999 NSW BKN020 QNH3000INS
BECMG 1921/1922 VRB06KT 8000 BR BKN020 QNH3001INS TX07/1912Z TNM02/2004Z



MET'MAP, la Météo Aéronautique d'un coup d'oeil ! - Copyright ORBIFLY Décembre 2007 - Disclaimer

ORBIFLY MET'MAP TEAM :

Programmation & Développement : Alexandra Zaïnal
Conception & Développement : Baudouin d'Aumeries
Co-Programmation & Développement : Marc-Olivier Méhu
Soutien technique & logistique : Manuel Goepfert

Contact : metmap@orbifly.com




SOURCES & CREDITS :

   NOAA